Time;durP1;ratioP1;P1;durP2;ratioP2;P2;SDS_P1;SDS_P2;PMS_P1;PMS_P2;Temp;Humidity;BMP_temperature;BMP_pressure;BME280_temperature;BME280_humidity;BME280_pressure;Samples;Min_cycle;Max_cycle;Signal;HPM_P1;HPM_P2
2021/03/14 00:01:03;;;;;;;9.02;2.00;;;6.00;94.30;;;;;;5065344;28;20040;-36
2021/03/14 00:03:29;;;;;;;8.13;2.00;;;6.00;94.30;;;;;;5064960;28;20025;-37
2021/03/14 00:05:57;;;;;;;11.27;2.50;;;6.00;94.40;;;;;;5064753;28;20500;-37
2021/03/14 00:08:25;;;;;;;9.57;2.40;;;6.00;94.30;;;;;;5067731;28;20037;-38
2021/03/14 00:10:59;;;;;;;7.00;2.05;;;5.90;94.30;;;;;;5069769;28;20031;-38
2021/03/14 00:13:29;;;;;;;10.20;2.03;;;6.00;94.30;;;;;;5068103;28;20029;-37
2021/03/14 00:15:55;;;;;;;8.85;2.22;;;5.90;94.30;;;;;;5079918;28;20139;-34
2021/03/14 00:18:25;;;;;;;8.30;2.63;;;6.00;94.30;;;;;;5066164;28;20033;-36
2021/03/14 00:20:50;;;;;;;7.22;2.22;;;5.90;94.30;;;;;;5063678;28;20498;-34
2021/03/14 00:23:16;;;;;;;10.13;2.25;;;6.00;94.30;;;;;;5067231;28;20028;-34
2021/03/14 00:25:50;;;;;;;11.30;3.17;;;6.00;94.30;;;;;;5064681;28;20054;-35
2021/03/14 00:28:18;;;;;;;13.85;2.83;;;6.00;94.30;;;;;;5072116;28;20024;-32
2021/03/14 00:30:44;;;;;;;11.52;2.60;;;6.00;94.10;;;;;;5075175;28;20521;-34
2021/03/14 00:33:10;;;;;;;15.00;3.45;;;6.10;94.10;;;;;;5075923;28;20021;-36
2021/03/14 00:35:36;;;;;;;9.18;2.22;;;6.10;94.00;;;;;;5064094;28;20051;-37
2021/03/14 00:38:02;;;;;;;11.40;2.40;;;6.10;94.00;;;;;;5064107;28;20047;-35
2021/03/14 00:40:28;;;;;;;9.43;2.08;;;6.10;94.00;;;;;;5064311;28;20131;-37
2021/03/14 00:42:57;;;;;;;8.32;1.83;;;6.10;94.00;;;;;;5066868;28;20119;-35
2021/03/14 00:45:22;;;;;;;9.70;2.38;;;6.10;94.00;;;;;;5067309;28;20463;-37
2021/03/14 00:47:48;;;;;;;12.60;2.22;;;6.10;94.00;;;;;;5076798;28;20133;-37
2021/03/14 00:50:14;;;;;;;7.88;2.25;;;6.10;94.00;;;;;;5064674;28;20051;-36
2021/03/14 00:52:40;;;;;;;7.05;2.28;;;6.10;94.00;;;;;;5079786;28;20032;-32
2021/03/14 00:55:08;;;;;;;6.82;1.73;;;6.10;93.90;;;;;;5063543;28;20443;-36
2021/03/14 00:57:34;;;;;;;8.70;2.25;;;6.20;93.90;;;;;;5064082;28;20020;-37
2021/03/14 01:00:00;;;;;;;14.73;2.67;;;6.20;93.70;;;;;;5060377;28;20032;-36
2021/03/14 01:02:25;;;;;;;10.95;2.28;;;6.30;93.80;;;;;;5065921;28;20030;-35
2021/03/14 01:04:51;;;;;;;10.95;2.40;;;6.30;93.60;;;;;;5075862;28;20027;-35
2021/03/14 01:07:17;;;;;;;8.73;1.83;;;6.30;93.60;;;;;;5076633;28;20035;-33
2021/03/14 01:09:42;;;;;;;10.90;2.30;;;6.30;93.60;;;;;;5070895;28;20171;-35
2021/03/14 01:12:09;;;;;;;5.35;2.00;;;6.40;93.60;;;;;;5063824;28;20152;-36
2021/03/14 01:14:35;;;;;;;8.52;2.00;;;6.40;93.50;;;;;;5064465;28;20024;-36
2021/03/14 01:17:00;;;;;;;14.05;2.60;;;6.40;93.50;;;;;;5063907;28;20048;-37
2021/03/14 01:19:26;;;;;;;9.20;1.90;;;6.30;93.50;;;;;;5068490;28;20048;-37
2021/03/14 01:21:51;;;;;;;12.52;3.03;;;6.40;93.40;;;;;;5068532;28;20143;-37
2021/03/14 01:24:17;;;;;;;13.70;2.60;;;6.40;93.30;;;;;;5082064;28;20024;-36
2021/03/14 01:26:43;;;;;;;10.93;1.90;;;6.40;93.20;;;;;;5072964;28;20016;-37
2021/03/14 01:29:08;;;;;;;10.15;2.33;;;6.40;93.30;;;;;;5079728;28;20086;-36
2021/03/14 01:31:34;;;;;;;9.88;2.47;;;6.40;93.30;;;;;;5067195;28;20035;-35
2021/03/14 01:33:59;;;;;;;7.85;2.13;;;6.40;93.30;;;;;;5068251;28;20025;-37
2021/03/14 01:36:28;;;;;;;8.68;1.55;;;6.40;93.30;;;;;;5069661;28;20024;-36
2021/03/14 01:38:54;;;;;;;10.02;2.90;;;6.40;93.30;;;;;;5073630;28;20183;-36
2021/03/14 01:41:19;;;;;;;8.30;2.03;;;6.40;93.30;;;;;;5081457;28;20250;-36
2021/03/14 01:43:45;;;;;;;13.35;2.60;;;6.40;93.20;;;;;;5082420;28;20329;-35
2021/03/14 01:46:16;;;;;;;10.63;2.42;;;6.40;93.20;;;;;;5069913;28;20459;-38
2021/03/14 01:48:42;;;;;;;12.20;2.33;;;6.40;93.20;;;;;;5068004;28;20162;-37
2021/03/14 01:51:08;;;;;;;8.88;2.78;;;6.40;93.30;;;;;;5069210;28;20544;-34
2021/03/14 01:53:34;;;;;;;7.65;1.95;;;6.40;93.20;;;;;;5067669;28;20486;-36
2021/03/14 01:56:01;;;;;;;7.82;2.00;;;6.50;93.30;;;;;;5074169;28;20039;-35
2021/03/14 01:58:26;;;;;;;11.23;2.10;;;6.50;93.30;;;;;;5076385;28;20048;-37
2021/03/14 02:00:53;;;;;;;11.45;2.70;;;6.50;93.30;;;;;;5080847;28;20032;-33
2021/03/14 02:03:20;;;;;;;9.93;2.10;;;6.40;93.40;;;;;;5074569;28;20123;-35
2021/03/14 02:05:46;;;;;;;11.13;2.38;;;6.50;93.30;;;;;;5075458;28;20369;-37
2021/03/14 02:08:12;;;;;;;6.88;1.70;;;6.50;93.20;;;;;;5068957;28;20436;-35
2021/03/14 02:10:38;;;;;;;9.65;2.47;;;6.50;93.30;;;;;;5083140;28;20031;-39
2021/03/14 02:13:08;;;;;;;7.57;2.03;;;6.50;93.30;;;;;;5066828;28;20026;-36
2021/03/14 02:15:53;;;;;;;8.57;2.55;;;6.40;93.30;;;;;;5066660;28;20456;-37
2021/03/14 02:18:19;;;;;;;8.48;2.35;;;6.50;93.40;;;;;;5066303;28;20086;-37
2021/03/14 02:20:46;;;;;;;10.90;2.40;;;6.50;93.20;;;;;;5071750;28;20529;-34
2021/03/14 02:23:49;;;;;;;10.23;2.75;;;6.50;93.20;;;;;;5071728;28;20036;-37
2021/03/14 02:26:37;;;;;;;10.50;2.08;;;6.50;93.30;;;;;;5076337;28;20028;-33
2021/03/14 02:29:03;;;;;;;7.65;1.90;;;6.50;93.20;;;;;;5066582;28;20051;-32
2021/03/14 02:31:29;;;;;;;9.32;1.92;;;6.50;93.20;;;;;;5067312;28;20075;-36
2021/03/14 02:34:01;;;;;;;9.48;1.75;;;6.50;93.30;;;;;;5066039;28;20103;-35
2021/03/14 02:36:30;;;;;;;10.07;2.05;;;6.40;93.30;;;;;;5067376;28;20111;-34
2021/03/14 02:38:56;;;;;;;6.32;2.08;;;6.40;93.50;;;;;;5067082;28;20400;-34
2021/03/14 02:41:23;;;;;;;6.18;2.08;;;6.40;93.50;;;;;;5066135;28;20543;-35
2021/03/14 02:43:50;;;;;;;11.00;2.47;;;6.40;93.60;;;;;;5066470;28;20487;-32
2021/03/14 02:46:15;;;;;;;9.57;1.90;;;6.40;93.60;;;;;;5066707;28;20135;-35
2021/03/14 02:48:41;;;;;;;8.27;1.95;;;6.40;93.60;;;;;;5066207;28;20099;-36
2021/03/14 02:51:07;;;;;;;13.30;2.38;;;6.40;93.60;;;;;;5066686;28;20078;-35
2021/03/14 02:53:37;;;;;;;11.80;2.42;;;6.40;93.60;;;;;;5066508;28;20048;-35
2021/03/14 02:56:04;;;;;;;8.65;2.05;;;6.40;93.60;;;;;;5065889;28;20032;-37
2021/03/14 02:58:32;;;;;;;9.45;2.65;;;6.30;93.60;;;;;;5066312;28;20082;-36
2021/03/14 03:00:59;;;;;;;11.75;3.33;;;6.30;93.60;;;;;;5066288;28;20051;-33
2021/03/14 03:03:25;;;;;;;13.32;3.03;;;6.30;93.50;;;;;;5065427;28;20109;-38
2021/03/14 03:06:01;;;;;;;10.10;2.30;;;6.30;93.40;;;;;;5066281;28;20029;-35
2021/03/14 03:08:29;;;;;;;9.57;2.03;;;6.40;93.30;;;;;;5066019;28;20025;-37
2021/03/14 03:10:56;;;;;;;11.60;2.10;;;6.40;93.40;;;;;;5066305;28;20111;-36
2021/03/14 03:13:23;;;;;;;15.43;3.15;;;6.30;93.40;;;;;;5065961;28;20025;-33
2021/03/14 03:15:50;;;;;;;8.20;2.08;;;6.30;93.40;;;;;;5065421;28;20052;-34
2021/03/14 03:18:18;;;;;;;9.43;2.20;;;6.20;93.50;;;;;;5065488;28;20491;-34
2021/03/14 03:20:44;;;;;;;15.82;3.92;;;6.20;93.50;;;;;;5066095;28;20040;-36
2021/03/14 03:23:10;;;;;;;11.07;2.47;;;6.20;93.50;;;;;;5065231;28;20020;-35
2021/03/14 03:25:36;;;;;;;9.98;2.60;;;6.10;93.40;;;;;;5065537;28;20169;-37
2021/03/14 03:28:03;;;;;;;7.95;2.13;;;6.10;93.50;;;;;;5066028;28;20476;-38
2021/03/14 03:30:29;;;;;;;13.52;2.75;;;6.00;93.50;;;;;;5065077;28;20056;-37
2021/03/14 03:32:55;;;;;;;11.45;2.70;;;6.00;93.50;;;;;;5065863;28;20621;-38
2021/03/14 03:35:22;;;;;;;15.93;2.70;;;6.00;93.60;;;;;;5065894;28;20028;-34
2021/03/14 03:37:49;;;;;;;13.02;2.30;;;6.00;93.60;;;;;;5065683;28;20029;-36
2021/03/14 03:40:23;;;;;;;7.75;2.30;;;6.00;93.60;;;;;;5065152;28;20051;-36
2021/03/14 03:43:20;;;;;;;7.85;2.47;;;5.90;93.90;;;;;;5065496;28;20028;-37
2021/03/14 03:45:54;;;;;;;8.75;2.28;;;5.90;93.70;;;;;;5064815;28;20029;-32
2021/03/14 03:48:29;;;;;;;8.20;2.28;;;5.90;93.60;;;;;;5065108;28;20140;-34
2021/03/14 03:50:56;;;;;;;9.27;2.20;;;5.90;93.70;;;;;;5064622;28;20032;-38
2021/03/14 03:53:23;;;;;;;10.75;2.53;;;5.80;93.70;;;;;;5065225;28;20054;-35
2021/03/14 03:55:51;;;;;;;10.68;2.35;;;5.80;93.80;;;;;;5065021;28;20034;-38
2021/03/14 03:58:18;;;;;;;10.70;2.70;;;5.80;93.90;;;;;;5064351;28;20513;-38
2021/03/14 04:00:45;;;;;;;11.10;2.55;;;5.80;93.90;;;;;;5064782;28;20044;-35
2021/03/14 04:03:11;;;;;;;9.32;2.03;;;5.80;94.00;;;;;;5065099;28;20107;-35
2021/03/14 04:05:37;;;;;;;16.00;2.85;;;5.80;94.10;;;;;;5064443;28;20101;-34
2021/03/14 04:08:04;;;;;;;12.52;2.40;;;5.80;94.20;;;;;;5065058;28;20031;-37
2021/03/14 04:10:30;;;;;;;13.27;2.50;;;5.80;94.50;;;;;;5064742;28;20036;-32
2021/03/14 04:12:57;;;;;;;11.95;2.70;;;5.80;94.30;;;;;;5064756;28;20533;-33
2021/03/14 04:15:26;;;;;;;12.52;2.83;;;5.80;94.40;;;;;;5064778;28;20052;-37
2021/03/14 04:17:53;;;;;;;8.13;2.38;;;5.70;94.50;;;;;;5064585;28;20039;-35
2021/03/14 04:20:29;;;;;;;13.57;2.60;;;5.70;94.60;;;;;;5063894;28;20468;-36
2021/03/14 04:22:58;;;;;;;11.30;2.50;;;5.80;94.60;;;;;;5054410;28;20024;-38
2021/03/14 04:25:25;;;;;;;10.98;3.05;;;5.80;94.70;;;;;;5064518;28;20510;-37
2021/03/14 04:27:52;;;;;;;10.77;2.20;;;5.80;94.70;;;;;;5063877;28;20436;-34
2021/03/14 04:30:22;;;;;;;13.23;2.78;;;5.90;94.70;;;;;;5064824;28;20020;-38
2021/03/14 04:32:48;;;;;;;11.07;2.40;;;5.80;94.70;;;;;;5061188;28;20096;-38
2021/03/14 04:35:15;;;;;;;10.02;2.55;;;5.90;94.80;;;;;;5064467;28;20055;-39
2021/03/14 04:37:44;;;;;;;14.00;2.80;;;5.90;94.90;;;;;;5064535;28;20027;-37
2021/03/14 04:40:11;;;;;;;14.80;3.13;;;5.90;94.90;;;;;;5064383;28;20055;-35
2021/03/14 04:42:44;;;;;;;12.15;2.58;;;6.00;94.90;;;;;;5064236;28;20106;-38
2021/03/14 04:45:10;;;;;;;;;;;6.00;94.90;;;;;;5064863;28;20035;-35
2021/03/14 04:47:43;;;;;;;11.65;3.55;;;6.00;94.80;;;;;;5063535;28;19908;-38
2021/03/14 04:50:10;;;;;;;;;;;6.00;94.80;;;;;;5044924;28;20368;-37
2021/03/14 04:52:36;;;;;;;9.95;3.22;;;6.10;94.80;;;;;;5058594;28;19916;-38
2021/03/14 04:55:03;;;;;;;11.43;2.05;;;6.10;94.80;;;;;;5064039;28;20017;-38
2021/03/14 04:57:30;;;;;;;9.95;2.50;;;6.00;94.80;;;;;;5064133;28;20017;-37
2021/03/14 04:59:59;;;;;;;10.77;2.45;;;6.00;94.90;;;;;;5064754;28;20024;-33
2021/03/14 05:02:25;;;;;;;8.70;2.40;;;6.00;95.00;;;;;;5064105;28;20132;-38
2021/03/14 05:04:53;;;;;;;8.25;1.85;;;6.00;95.10;;;;;;5064530;28;20055;-38
2021/03/14 05:07:20;;;;;;;9.18;1.88;;;6.00;95.00;;;;;;5064414;28;20028;-37
2021/03/14 05:09:46;;;;;;;8.75;2.45;;;6.00;95.10;;;;;;5064345;28;20035;-37
2021/03/14 05:12:12;;;;;;;12.93;2.50;;;6.00;95.10;;;;;;5064200;28;20375;-34
2021/03/14 05:14:38;;;;;;;8.68;2.30;;;6.00;95.20;;;;;;5064175;28;20544;-33
2021/03/14 05:17:04;;;;;;;8.43;1.95;;;6.00;95.20;;;;;;5063988;28;20036;-35
2021/03/14 05:19:31;;;;;;;8.32;1.98;;;6.00;95.20;;;;;;5064258;28;20035;-36
2021/03/14 05:21:58;;;;;;;8.95;2.63;;;6.00;95.20;;;;;;5064226;28;20520;-38
2021/03/14 05:24:28;;;;;;;13.68;2.53;;;6.00;95.20;;;;;;5063760;28;20013;-35
2021/03/14 05:26:57;;;;;;;15.90;3.25;;;6.00;95.20;;;;;;5064102;28;20108;-36
2021/03/14 05:29:24;;;;;;;11.15;2.42;;;6.00;95.30;;;;;;5063939;28;20032;-36
2021/03/14 05:31:52;;;;;;;11.30;3.42;;;6.00;95.40;;;;;;5065090;28;20097;-34
2021/03/14 05:34:18;;;;;;;6.90;3.30;;;6.00;95.50;;;;;;5063977;28;20025;-35
2021/03/14 05:36:44;;;;;;;5.63;3.17;;;5.90;95.50;;;;;;5064490;28;20033;-31
2021/03/14 05:39:10;;;;;;;10.90;3.20;;;5.80;95.70;;;;;;5064340;28;20593;-36
2021/03/14 05:41:39;;;;;;;12.23;3.85;;;5.80;95.90;;;;;;5064879;28;20074;-38
2021/03/14 05:44:06;;;;;;;6.63;3.05;;;5.70;96.20;;;;;;5064612;28;20153;-35
2021/03/14 05:46:32;;;;;;;5.43;3.08;;;5.70;96.40;;;;;;5064845;28;20148;-36
2021/03/14 05:48:58;;;;;;;9.18;3.55;;;5.60;96.60;;;;;;5064859;28;20103;-37
2021/03/14 05:51:29;;;;;;;5.95;2.83;;;5.60;96.60;;;;;;5063811;28;20535;-37
2021/03/14 05:53:58;;;;;;;7.38;2.63;;;5.60;96.80;;;;;;5064545;28;20028;-35
2021/03/14 05:56:24;;;;;;;6.65;2.60;;;5.60;96.70;;;;;;5064687;28;20539;-34
2021/03/14 05:58:51;;;;;;;8.85;3.92;;;5.60;96.70;;;;;;5064230;28;20024;-35
2021/03/14 06:01:19;;;;;;;6.72;3.28;;;5.60;97.00;;;;;;5064536;28;20043;-35
2021/03/14 06:03:44;;;;;;;7.38;3.17;;;5.60;97.00;;;;;;5064570;28;20607;-35
2021/03/14 06:06:11;;;;;;;8.07;3.83;;;5.60;97.00;;;;;;5063986;28;20037;-33
2021/03/14 06:08:38;;;;;;;7.50;2.95;;;5.60;97.20;;;;;;5064410;28;20543;-35
2021/03/14 06:11:05;;;;;;;8.70;3.80;;;5.60;97.00;;;;;;5064747;28;20024;-37
2021/03/14 06:13:31;;;;;;;5.65;3.75;;;5.60;97.10;;;;;;5067793;28;20029;-32
2021/03/14 06:15:57;;;;;;;11.55;4.07;;;5.60;97.10;;;;;;5068227;28;20024;-37
2021/03/14 06:18:24;;;;;;;8.70;3.90;;;5.60;97.30;;;;;;5067754;28;20115;-36
2021/03/14 06:20:49;;;;;;;8.35;4.05;;;5.60;97.30;;;;;;5067771;28;20162;-38
2021/03/14 06:23:16;;;;;;;10.00;3.97;;;5.60;97.40;;;;;;5067898;28;20443;-38
2021/03/14 06:25:44;;;;;;;9.70;4.13;;;5.60;97.60;;;;;;5067755;28;20029;-38
2021/03/14 06:28:14;;;;;;;8.50;3.95;;;5.60;97.70;;;;;;5067822;28;20028;-39
2021/03/14 06:30:40;;;;;;;5.10;3.00;;;5.60;97.70;;;;;;5067985;28;20031;-37
2021/03/14 06:33:11;;;;;;;7.47;3.25;;;5.60;97.70;;;;;;5067762;28;20031;-38
2021/03/14 06:35:43;;;;;;;5.32;3.38;;;5.60;97.60;;;;;;5067267;28;20115;-37
2021/03/14 06:38:31;;;;;;;5.77;3.73;;;5.60;97.70;;;;;;5067979;28;20371;-36
2021/03/14 06:41:02;;;;;;;7.75;4.22;;;5.60;97.70;;;;;;5067500;28;20514;-39
2021/03/14 06:43:34;;;;;;;8.00;3.80;;;5.70;97.70;;;;;;5067782;28;20028;-37
2021/03/14 06:46:00;;;;;;;5.13;3.45;;;5.70;97.80;;;;;;5067573;28;20028;-37
2021/03/14 06:48:29;;;;;;;5.10;3.70;;;5.70;97.70;;;;;;5067205;28;20830;-32
2021/03/14 06:50:55;;;;;;;5.47;3.72;;;5.70;97.60;;;;;;5067427;28;20050;-38
2021/03/14 06:53:23;;;;;;;6.00;3.20;;;5.80;97.60;;;;;;5067273;28;20115;-36
2021/03/14 06:56:03;;;;;;;4.97;3.15;;;5.80;97.60;;;;;;5066927;28;20028;-39
2021/03/14 06:58:29;;;;;;;4.95;3.33;;;5.80;97.50;;;;;;5067779;28;20129;-38
2021/03/14 07:01:14;;;;;;;4.43;3.67;;;5.90;97.40;;;;;;5066807;28;20116;-34
2021/03/14 07:04:00;;;;;;;4.97;3.13;;;5.90;97.40;;;;;;5067473;28;20064;-39
2021/03/14 07:06:29;;;;;;;3.97;2.78;;;5.90;97.30;;;;;;5066980;28;20020;-39
2021/03/14 07:08:57;;;;;;;5.47;3.15;;;6.00;97.30;;;;;;5067053;28;20078;-37
2021/03/14 07:11:43;;;;;;;5.75;3.92;;;6.00;97.30;;;;;;5067095;28;20047;-38
2021/03/14 07:14:16;;;;;;;5.55;3.70;;;6.10;97.40;;;;;;5067451;28;20020;-32
2021/03/14 07:16:44;;;;;;;8.05;4.38;;;6.10;97.30;;;;;;5066537;28;20426;-36
2021/03/14 07:19:14;;;;;;;5.18;4.20;;;6.10;97.30;;;;;;5067187;28;20058;-42
2021/03/14 07:21:40;;;;;;;4.95;3.70;;;6.20;97.20;;;;;;5065633;28;20033;-36
2021/03/14 07:24:11;;;;;;;7.18;4.75;;;6.20;97.20;;;;;;5066797;28;20027;-38
2021/03/14 07:26:41;;;;;;;6.90;4.80;;;6.30;97.10;;;;;;5066543;28;20025;-39
2021/03/14 07:29:07;;;;;;;6.15;4.70;;;6.30;97.10;;;;;;5055925;28;20125;-35
2021/03/14 07:31:34;;;;;;;9.80;5.32;;;6.30;97.10;;;;;;5066483;28;20496;-37
2021/03/14 07:34:02;;;;;;;8.13;5.63;;;6.30;97.10;;;;;;5066898;28;20087;-37
2021/03/14 07:36:27;;;;;;;8.38;5.65;;;6.30;97.10;;;;;;5066430;28;20033;-37
2021/03/14 07:38:53;;;;;;;9.38;6.00;;;6.30;97.10;;;;;;5066450;28;20040;-35
2021/03/14 07:41:18;;;;;;;10.63;6.78;;;6.30;97.10;;;;;;5066497;28;20033;-37
2021/03/14 07:43:44;;;;;;;10.88;6.32;;;6.30;97.20;;;;;;5065430;28;20038;-38
2021/03/14 07:46:11;;;;;;;11.93;6.32;;;6.40;97.20;;;;;;5066532;28;20028;-37
2021/03/14 07:48:39;;;;;;;12.10;7.07;;;6.40;97.20;;;;;;5065909;28;20029;-35
2021/03/14 07:51:05;;;;;;;10.52;6.60;;;6.40;97.20;;;;;;5065772;28;20122;-35
2021/03/14 07:53:30;;;;;;;9.05;6.85;;;6.50;97.20;;;;;;5065647;28;20021;-35
2021/03/14 07:55:59;;;;;;;11.75;7.25;;;6.50;97.20;;;;;;5065625;28;20033;-35
2021/03/14 07:58:25;;;;;;;13.48;8.07;;;6.60;97.20;;;;;;5061530;28;20135;-39
2021/03/14 08:00:55;;;;;;;13.57;7.43;;;6.60;97.30;;;;;;5064747;28;20036;-33
2021/03/14 08:03:36;;;;;;;11.80;7.75;;;6.70;97.30;;;;;;5063737;28;20548;-35
2021/03/14 08:06:02;;;;;;;10.93;7.40;;;6.70;97.30;;;;;;5060228;28;20373;-38
2021/03/14 08:08:27;;;;;;;12.18;6.80;;;6.70;97.30;;;;;;5060540;28;20021;-34
2021/03/14 08:10:54;;;;;;;12.02;7.28;;;6.80;97.30;;;;;;5063988;28;20029;-32
2021/03/14 08:13:31;;;;;;;10.23;6.93;;;6.80;97.20;;;;;;5064341;28;20116;-36
2021/03/14 08:16:00;;;;;;;10.77;7.25;;;6.90;97.20;;;;;;5064944;28;20052;-35
2021/03/14 08:18:37;;;;;;;10.82;7.20;;;7.00;97.20;;;;;;5063670;28;20025;-39
2021/03/14 08:21:04;;;;;;;10.10;6.95;;;7.00;97.20;;;;;;5064587;28;20098;-38
2021/03/14 08:23:42;;;;;;;13.38;6.32;;;7.10;97.20;;;;;;5064219;28;20118;-32
2021/03/14 08:26:22;;;;;;;11.23;6.22;;;7.10;97.20;;;;;;5054136;28;20024;-35
2021/03/14 08:29:04;;;;;;;12.30;6.30;;;7.20;97.10;;;;;;5064265;28;20020;-38
2021/03/14 08:31:49;;;;;;;9.73;6.13;;;7.30;97.00;;;;;;5064507;28;20162;-35
2021/03/14 08:34:28;;;;;;;9.95;5.95;;;7.40;97.00;;;;;;5063741;28;20104;-37
2021/03/14 08:36:55;;;;;;;13.40;6.30;;;7.40;97.00;;;;;;5064393;28;20030;-37
2021/03/14 08:39:24;;;;;;;12.55;5.78;;;7.40;97.00;;;;;;5064020;28;20112;-37
2021/03/14 08:41:53;;;;;;;11.40;6.07;;;7.40;97.00;;;;;;5064477;28;20116;-36
2021/03/14 08:44:32;;;;;;;11.73;6.28;;;7.50;97.00;;;;;;5063253;28;20024;-33
2021/03/14 08:47:03;;;;;;;14.55;6.53;;;7.50;96.90;;;;;;5062445;28;20047;-37
2021/03/14 08:49:30;;;;;;;11.65;5.47;;;7.60;96.90;;;;;;5062586;28;20059;-35
2021/03/14 08:51:56;;;;;;;11.13;5.95;;;7.70;96.90;;;;;;5064245;28;20156;-36
2021/03/14 08:54:28;;;;;;;10.02;5.25;;;7.80;96.70;;;;;;5059502;28;20562;-34
2021/03/14 08:56:55;;;;;;;13.63;5.60;;;7.90;96.70;;;;;;5056366;28;20055;-37
2021/03/14 08:59:21;;;;;;;12.05;6.13;;;7.90;96.50;;;;;;5062740;28;20028;-35
2021/03/14 09:01:52;;;;;;;11.75;5.07;;;7.90;96.30;;;;;;5056139;28;20040;-35
2021/03/14 09:04:19;;;;;;;12.38;6.15;;;8.00;96.40;;;;;;5062097;28;20032;-34
2021/03/14 09:06:45;;;;;;;11.10;5.53;;;8.00;96.40;;;;;;5062561;28;20039;-37
2021/03/14 09:09:13;;;;;;;13.20;5.43;;;8.00;96.20;;;;;;5062041;28;20029;-35
2021/03/14 09:11:46;;;;;;;12.90;5.85;;;8.00;96.10;;;;;;5064337;28;20028;-37
2021/03/14 09:14:38;;;;;;;16.98;5.70;;;8.00;96.20;;;;;;5053304;28;20547;-38
2021/03/14 09:17:14;;;;;;;10.30;5.10;;;8.10;95.70;;;;;;5057051;28;20035;-34
2021/03/14 09:19:51;;;;;;;12.60;5.28;;;8.10;95.90;;;;;;5048008;28;20716;-34
2021/03/14 09:22:27;;;;;;;10.20;4.78;;;8.10;95.80;;;;;;5063873;28;20032;-37
2021/03/14 09:24:55;;;;;;;13.77;5.80;;;8.10;95.80;;;;;;5044638;28;20045;-34
2021/03/14 09:27:26;;;;;;;11.07;4.40;;;8.10;95.40;;;;;;5062631;28;20116;-38
2021/03/14 09:29:52;;;;;;;16.90;5.20;;;8.10;95.40;;;;;;5065237;28;20051;-38
2021/03/14 09:32:46;;;;;;;13.35;4.75;;;8.10;95.40;;;;;;5062852;28;20411;-37
2021/03/14 09:35:26;;;;;;;7.93;4.30;;;8.10;95.30;;;;;;5050803;28;20036;-39
2021/03/14 09:37:54;;;;;;;9.57;4.38;;;8.20;95.30;;;;;;5062850;28;20028;-36
2021/03/14 09:40:39;;;;;;;10.32;4.80;;;8.30;95.20;;;;;;5080224;28;20585;-36
2021/03/14 09:43:16;;;;;;;10.80;5.00;;;8.40;95.00;;;;;;5062276;28;20687;-38
2021/03/14 09:45:49;;;;;;;11.90;5.35;;;8.50;95.00;;;;;;5078425;28;20111;-39
2021/03/14 09:48:24;;;;;;;15.55;4.90;;;8.60;94.60;;;;;;5067677;28;20372;-35
2021/03/14 09:50:56;;;;;;;11.70;4.85;;;8.70;93.70;;;;;;5079550;28;20044;-38
2021/03/14 09:53:25;;;;;;;8.37;3.90;;;8.70;93.90;;;;;;5066704;28;20103;-37
2021/03/14 09:56:02;;;;;;;9.25;3.95;;;8.70;93.90;;;;;;5080399;28;20310;-37
2021/03/14 09:58:30;;;;;;;9.68;4.38;;;8.70;93.80;;;;;;5070733;28;20023;-38
2021/03/14 10:00:57;;;;;;;9.35;3.60;;;8.70;93.90;;;;;;5077956;28;20036;-37
2021/03/14 10:03:25;;;;;;;11.80;3.97;;;8.70;94.00;;;;;;5072167;28;20081;-38
2021/03/14 10:05:55;;;;;;;9.00;3.95;;;8.70;94.20;;;;;;5073668;28;20714;-37
2021/03/14 10:08:23;;;;;;;12.38;4.25;;;8.80;93.70;;;;;;5077459;28;20691;-36
2021/03/14 10:10:50;;;;;;;10.65;4.00;;;8.80;93.00;;;;;;5068899;28;20058;-38
2021/03/14 10:13:18;;;;;;;10.48;3.97;;;8.90;93.20;;;;;;5071666;28;20170;-37
2021/03/14 10:15:47;;;;;;;10.13;3.30;;;8.90;92.60;;;;;;5065960;28;20020;-38
2021/03/14 10:18:17;;;;;;;6.60;3.30;;;8.90;92.80;;;;;;5069150;28;20468;-38
2021/03/14 10:20:43;;;;;;;9.20;4.00;;;9.00;92.90;;;;;;5071099;28;20036;-39
2021/03/14 10:23:09;;;;;;;11.70;3.72;;;9.10;92.40;;;;;;5069461;28;20024;-40
2021/03/14 10:25:37;;;;;;;10.45;3.50;;;9.10;92.40;;;;;;5066662;28;20547;-37
2021/03/14 10:28:15;;;;;;;8.27;3.60;;;9.10;91.70;;;;;;5071019;28;20016;-37
2021/03/14 10:30:43;;;;;;;6.15;3.03;;;9.00;92.20;;;;;;5076794;28;20032;-38
2021/03/14 10:33:27;;;;;;;6.13;3.45;;;8.90;92.50;;;;;;5069876;28;20020;-36
2021/03/14 10:36:00;;;;;;;10.60;3.10;;;8.80;92.80;;;;;;5058924;28;20043;-39
2021/03/14 10:38:43;;;;;;;10.73;3.25;;;8.60;93.00;;;;;;5068090;28;20032;-38
2021/03/14 10:41:14;;;;;;;7.75;2.95;;;8.50;93.40;;;;;;5076212;28;20048;-39
2021/03/14 10:43:50;;;;;;;8.13;3.17;;;8.30;94.20;;;;;;5067766;28;20139;-35
2021/03/14 10:46:37;;;;;;;14.30;4.32;;;8.20;94.80;;;;;;5073528;28;20483;-35
2021/03/14 10:49:08;;;;;;;9.32;3.40;;;8.10;95.00;;;;;;5057462;28;20028;-38
2021/03/14 10:51:39;;;;;;;11.18;2.95;;;8.10;95.40;;;;;;5070098;28;20084;-37
2021/03/14 10:54:10;;;;;;;8.98;3.08;;;8.10;95.50;;;;;;5069694;28;20024;-37
2021/03/14 10:56:40;;;;;;;11.05;3.08;;;8.30;95.60;;;;;;5063647;28;20804;-36
2021/03/14 10:59:06;;;;;;;8.18;2.63;;;8.50;95.30;;;;;;5069373;28;20040;-34
2021/03/14 11:01:37;;;;;;;6.72;3.38;;;8.70;94.80;;;;;;5072371;28;20039;-36
2021/03/14 11:04:07;;;;;;;5.95;2.70;;;8.70;94.50;;;;;;5070242;28;20040;-38
2021/03/14 11:06:35;;;;;;;7.75;3.15;;;8.70;94.50;;;;;;5076007;28;20029;-37
2021/03/14 11:09:06;;;;;;;6.57;2.10;;;8.80;94.20;;;;;;5072637;28;20499;-35
2021/03/14 11:11:42;;;;;;;4.45;1.80;;;8.80;94.20;;;;;;5061365;28;20021;-36
2021/03/14 11:14:26;;;;;;;4.45;1.60;;;8.80;92.80;;;;;;5069971;28;20039;-37
2021/03/14 11:17:06;;;;;;;5.38;1.60;;;8.70;92.90;;;;;;5076260;28;20103;-38
2021/03/14 11:19:32;;;;;;;6.35;1.50;;;8.70;93.10;;;;;;5063758;28;20047;-36
2021/03/14 11:21:57;;;;;;;4.53;1.40;;;8.80;92.70;;;;;;5067550;28;20456;-38
2021/03/14 11:24:23;;;;;;;4.82;1.42;;;9.00;93.50;;;;;;5066539;28;20066;-38
2021/03/14 11:26:48;;;;;;;3.42;1.30;;;9.20;92.80;;;;;;5063913;28;20148;-36
2021/03/14 11:29:14;;;;;;;4.85;1.60;;;9.30;92.70;;;;;;5068261;28;20029;-38
2021/03/14 11:31:39;;;;;;;4.95;1.80;;;9.50;92.00;;;;;;5065221;28;20082;-35
2021/03/14 11:34:05;;;;;;;4.68;1.58;;;9.60;91.70;;;;;;5064955;28;20059;-37
2021/03/14 11:36:31;;;;;;;4.60;1.50;;;9.60;92.00;;;;;;5060505;28;20082;-34
2021/03/14 11:38:56;;;;;;;2.92;1.20;;;9.70;91.80;;;;;;5071331;28;20081;-34
2021/03/14 11:41:22;;;;;;;4.93;1.60;;;9.80;92.10;;;;;;5068959;28;20877;-36
2021/03/14 11:43:50;;;;;;;3.67;1.30;;;9.80;90.80;;;;;;5077383;28;20336;-36
2021/03/14 11:46:16;;;;;;;4.38;1.77;;;9.80;91.40;;;;;;5062331;28;20041;-34
2021/03/14 11:48:41;;;;;;;9.15;2.40;;;9.70;90.90;;;;;;5070830;28;20032;-33
2021/03/14 11:51:07;;;;;;;4.55;1.90;;;9.70;91.00;;;;;;5068813;28;20052;-36
2021/03/14 11:53:33;;;;;;;5.07;1.30;;;9.70;91.10;;;;;;5073464;28;20024;-37
2021/03/14 11:55:59;;;;;;;7.30;1.60;;;9.70;91.20;;;;;;5068274;28;20036;-36
2021/03/14 11:58:24;;;;;;;7.53;1.73;;;9.80;91.20;;;;;;5063111;28;20035;-38
2021/03/14 12:00:50;;;;;;;6.43;1.88;;;9.80;90.40;;;;;;5063556;28;20029;-36
2021/03/14 12:03:16;;;;;;;8.63;2.53;;;9.80;89.90;;;;;;5060301;28;20821;-38
2021/03/14 12:05:44;;;;;;;9.23;1.95;;;9.90;90.20;;;;;;5061368;28;20024;-36
2021/03/14 12:08:10;;;;;;;5.07;1.85;;;9.90;90.20;;;;;;5062809;28;20137;-37
2021/03/14 12:10:36;;;;;;;6.20;1.75;;;9.90;89.50;;;;;;5063308;28;20155;-37
2021/03/14 12:13:02;;;;;;;4.55;1.60;;;10.00;88.50;;;;;;5065017;28;20325;-36
2021/03/14 12:15:27;;;;;;;4.88;1.38;;;10.00;86.50;;;;;;5063939;28;20039;-38
2021/03/14 12:17:53;;;;;;;7.20;1.63;;;10.00;85.90;;;;;;5057632;28;20027;-37
2021/03/14 12:20:18;;;;;;;8.80;1.95;;;10.00;86.80;;;;;;5059874;28;20451;-36
2021/03/14 12:22:44;;;;;;;9.65;1.90;;;9.90;86.30;;;;;;5064700;28;20024;-34
2021/03/14 12:25:10;;;;;;;6.00;1.60;;;9.90;87.00;;;;;;5063025;28;20032;-35
2021/03/14 12:27:35;;;;;;;6.18;2.08;;;9.70;86.20;;;;;;5058546;28;20075;-36
2021/03/14 12:30:01;;;;;;;8.32;2.15;;;9.70;87.50;;;;;;5060947;28;20021;-38
2021/03/14 12:32:26;;;;;;;4.80;1.73;;;9.60;87.50;;;;;;5068834;28;20786;-37
2021/03/14 12:34:52;;;;;;;8.07;2.00;;;9.60;87.80;;;;;;5064850;28;20482;-38
2021/03/14 12:37:17;;;;;;;6.57;1.60;;;9.70;88.40;;;;;;5056912;28;20047;-37
2021/03/14 12:39:43;;;;;;;3.63;1.38;;;9.70;88.10;;;;;;5059883;28;20032;-35
2021/03/14 12:42:08;;;;;;;9.68;2.35;;;9.90;87.80;;;;;;5063140;28;20033;-37
2021/03/14 12:44:34;;;;;;;4.85;1.50;;;9.90;87.50;;;;;;5058187;28;20013;-37
2021/03/14 12:47:00;;;;;;;6.85;1.90;;;10.00;87.10;;;;;;5062100;28;20028;-38
2021/03/14 12:49:26;;;;;;;7.30;1.70;;;10.10;85.60;;;;;;5065892;28;20040;-39
2021/03/14 12:51:54;;;;;;;6.75;1.90;;;10.00;84.90;;;;;;5062625;28;20086;-33
2021/03/14 12:54:20;;;;;;;5.47;1.77;;;10.00;85.60;;;;;;5053815;28;20085;-38
2021/03/14 12:56:45;;;;;;;7.72;2.13;;;10.00;86.00;;;;;;5084054;28;20421;-33
2021/03/14 12:59:11;;;;;;;3.95;1.60;;;10.00;85.50;;;;;;5061471;28;20083;-37
2021/03/14 13:01:36;;;;;;;4.55;2.00;;;10.00;86.10;;;;;;5058042;28;20807;-38